sensor_id;sensor_type;location;lat;lon;timestamp;temperature;humidity
31309;DHT22;17936;52.446;10.840;2023-02-28T00:01:23;-0.40;29.20
31309;DHT22;17936;52.446;10.840;2023-02-28T00:03:49;-0.40;16.50
31309;DHT22;17936;52.446;10.840;2023-02-28T00:06:15;-0.80;27.00
31309;DHT22;17936;52.446;10.840;2023-02-28T00:08:40;-0.90;57.80
31309;DHT22;17936;52.446;10.840;2023-02-28T00:11:09;-0.60;78.70
31309;DHT22;17936;52.446;10.840;2023-02-28T00:13:37;-0.60;79.30
31309;DHT22;17936;52.446;10.840;2023-02-28T00:16:07;-0.70;66.10
31309;DHT22;17936;52.446;10.840;2023-02-28T00:18:33;-0.80;84.60
31309;DHT22;17936;52.446;10.840;2023-02-28T00:20:59;-0.60;87.00
31309;DHT22;17936;52.446;10.840;2023-02-28T00:23:25;-0.70;90.30
31309;DHT22;17936;52.446;10.840;2023-02-28T00:25:51;-0.70;85.40
31309;DHT22;17936;52.446;10.840;2023-02-28T00:28:17;-0.70;89.30
31309;DHT22;17936;52.446;10.840;2023-02-28T00:30:43;-0.60;82.70
31309;DHT22;17936;52.446;10.840;2023-02-28T00:33:08;-0.50;68.20
31309;DHT22;17936;52.446;10.840;2023-02-28T00:35:34;-0.70;55.20
31309;DHT22;17936;52.446;10.840;2023-02-28T00:37:59;-0.90;56.70
31309;DHT22;17936;52.446;10.840;2023-02-28T00:40:25;-0.90;80.60
31309;DHT22;17936;52.446;10.840;2023-02-28T00:42:50;-0.80;91.60
31309;DHT22;17936;52.446;10.840;2023-02-28T00:45:16;-1.00;90.70
31309;DHT22;17936;52.446;10.840;2023-02-28T00:47:41;-1.20;94.60
31309;DHT22;17936;52.446;10.840;2023-02-28T00:50:08;-1.30;99.90
31309;DHT22;17936;52.446;10.840;2023-02-28T00:52:34;-1.00;99.90
31309;DHT22;17936;52.446;10.840;2023-02-28T00:54:59;-0.70;99.90
31309;DHT22;17936;52.446;10.840;2023-02-28T00:57:25;-0.70;98.80
31309;DHT22;17936;52.446;10.840;2023-02-28T00:59:51;-0.70;95.70
31309;DHT22;17936;52.446;10.840;2023-02-28T01:02:20;-0.60;92.70
31309;DHT22;17936;52.446;10.840;2023-02-28T01:04:46;-0.60;84.30
31309;DHT22;17936;52.446;10.840;2023-02-28T01:07:11;-0.50;81.40
31309;DHT22;17936;52.446;10.840;2023-02-28T01:09:37;-0.50;80.20
31309;DHT22;17936;52.446;10.840;2023-02-28T01:12:03;-0.60;70.30
31309;DHT22;17936;52.446;10.840;2023-02-28T01:14:29;-0.50;80.80
31309;DHT22;17936;52.446;10.840;2023-02-28T01:16:54;-0.70;83.70
31309;DHT22;17936;52.446;10.840;2023-02-28T01:19:20;-0.80;90.30
31309;DHT22;17936;52.446;10.840;2023-02-28T01:21:45;-0.80;93.50
31309;DHT22;17936;52.446;10.840;2023-02-28T01:24:11;-1.00;96.70
31309;DHT22;17936;52.446;10.840;2023-02-28T01:26:36;-1.00;99.90
31309;DHT22;17936;52.446;10.840;2023-02-28T01:29:02;-0.90;99.90
31309;DHT22;17936;52.446;10.840;2023-02-28T01:31:28;-0.90;99.90
31309;DHT22;17936;52.446;10.840;2023-02-28T01:33:53;-0.90;99.90
31309;DHT22;17936;52.446;10.840;2023-02-28T01:36:23;-0.80;99.40
31309;DHT22;17936;52.446;10.840;2023-02-28T01:38:50;-0.80;98.60
31309;DHT22;17936;52.446;10.840;2023-02-28T01:41:25;-0.90;98.00
31309;DHT22;17936;52.446;10.840;2023-02-28T01:43:57;-1.00;99.30
31309;DHT22;17936;52.446;10.840;2023-02-28T01:46:23;-1.20;99.70
31309;DHT22;17936;52.446;10.840;2023-02-28T01:49:14;-1.30;99.90
31309;DHT22;17936;52.446;10.840;2023-02-28T01:51:43;-0.70;99.90
31309;DHT22;17936;52.446;10.840;2023-02-28T01:54:23;-0.70;99.50
31309;DHT22;17936;52.446;10.840;2023-02-28T01:56:55;-0.80;96.80
31309;DHT22;17936;52.446;10.840;2023-02-28T01:59:23;-0.70;96.10
31309;DHT22;17936;52.446;10.840;2023-02-28T02:01:50;-0.80;94.30
31309;DHT22;17936;52.446;10.840;2023-02-28T02:04:15;-0.70;94.60
31309;DHT22;17936;52.446;10.840;2023-02-28T02:06:44;-0.70;93.60
31309;DHT22;17936;52.446;10.840;2023-02-28T02:09:11;-0.70;92.50
31309;DHT22;17936;52.446;10.840;2023-02-28T02:11:38;-0.70;90.10
31309;DHT22;17936;52.446;10.840;2023-02-28T02:14:24;-0.90;83.20
31309;DHT22;17936;52.446;10.840;2023-02-28T02:25:39;-1.30;99.90
31309;DHT22;17936;52.446;10.840;2023-02-28T02:30:44;-1.20;99.90
31309;DHT22;17936;52.446;10.840;2023-02-28T02:33:28;-1.40;99.90
31309;DHT22;17936;52.446;10.840;2023-02-28T02:36:18;-1.10;99.90
31309;DHT22;17936;52.446;10.840;2023-02-28T02:41:40;-1.20;99.90
31309;DHT22;17936;52.446;10.840;2023-02-28T02:44:19;-1.10;99.90
31309;DHT22;17936;52.446;10.840;2023-02-28T02:46:48;-1.10;99.90
31309;DHT22;17936;52.446;10.840;2023-02-28T02:49:24;-1.20;98.80
31309;DHT22;17936;52.446;10.840;2023-02-28T02:51:52;-1.10;99.20
31309;DHT22;17936;52.446;10.840;2023-02-28T02:54:28;-1.00;98.00
31309;DHT22;17936;52.446;10.840;2023-02-28T02:56:57;-1.00;96.50
31309;DHT22;17936;52.446;10.840;2023-02-28T02:59:24;-1.10;94.40
31309;DHT22;17936;52.446;10.840;2023-02-28T03:02:00;-1.00;94.40
31309;DHT22;17936;52.446;10.840;2023-02-28T03:04:31;-1.00;93.30
31309;DHT22;17936;52.446;10.840;2023-02-28T03:06:57;-1.20;91.60
31309;DHT22;17936;52.446;10.840;2023-02-28T03:09:24;-1.20;93.10
31309;DHT22;17936;52.446;10.840;2023-02-28T03:11:51;-1.20;91.80
31309;DHT22;17936;52.446;10.840;2023-02-28T03:14:40;-1.20;94.70
31309;DHT22;17936;52.446;10.840;2023-02-28T03:22:45;-1.30;95.80
31309;DHT22;17936;52.446;10.840;2023-02-28T03:25:31;-1.30;93.40
31309;DHT22;17936;52.446;10.840;2023-02-28T03:28:22;-1.30;93.10
31309;DHT22;17936;52.446;10.840;2023-02-28T03:31:15;-1.30;90.60
31309;DHT22;17936;52.446;10.840;2023-02-28T03:34:02;-1.30;90.80
31309;DHT22;17936;52.446;10.840;2023-02-28T03:36:35;-1.50;87.30
31309;DHT22;17936;52.446;10.840;2023-02-28T03:39:22;-1.80;92.40
31309;DHT22;17936;52.446;10.840;2023-02-28T03:41:59;-1.70;97.10
31309;DHT22;17936;52.446;10.840;2023-02-28T03:44:33;-1.70;98.90
31309;DHT22;17936;52.446;10.840;2023-02-28T03:47:14;-1.60;99.90
31309;DHT22;17936;52.446;10.840;2023-02-28T03:52:31;-1.60;98.30
31309;DHT22;17936;52.446;10.840;2023-02-28T03:55:05;-1.60;96.70
31309;DHT22;17936;52.446;10.840;2023-02-28T04:00:25;-1.70;97.30
31309;DHT22;17936;52.446;10.840;2023-02-28T04:02:54;-1.50;95.20
31309;DHT22;17936;52.446;10.840;2023-02-28T04:05:20;-1.50;92.90
31309;DHT22;17936;52.446;10.840;2023-02-28T04:07:46;-1.50;91.80
31309;DHT22;17936;52.446;10.840;2023-02-28T04:10:13;-1.60;90.80
31309;DHT22;17936;52.446;10.840;2023-02-28T04:12:38;-1.60;90.40
31309;DHT22;17936;52.446;10.840;2023-02-28T04:15:04;-1.60;89.80
31309;DHT22;17936;52.446;10.840;2023-02-28T04:17:30;-1.80;86.90
31309;DHT22;17936;52.446;10.840;2023-02-28T04:19:56;-1.90;88.40
31309;DHT22;17936;52.446;10.840;2023-02-28T04:22:22;-2.10;91.60
31309;DHT22;17936;52.446;10.840;2023-02-28T04:24:51;-2.20;99.90
31309;DHT22;17936;52.446;10.840;2023-02-28T04:27:16;-2.00;99.90
31309;DHT22;17936;52.446;10.840;2023-02-28T04:29:42;-2.20;99.90
31309;DHT22;17936;52.446;10.840;2023-02-28T04:32:10;-2.30;99.90
31309;DHT22;17936;52.446;10.840;2023-02-28T04:34:36;-2.20;99.90
31309;DHT22;17936;52.446;10.840;2023-02-28T04:37:02;-2.00;99.90
31309;DHT22;17936;52.446;10.840;2023-02-28T04:39:28;-2.20;99.90
31309;DHT22;17936;52.446;10.840;2023-02-28T04:41:55;-2.10;99.90
31309;DHT22;17936;52.446;10.840;2023-02-28T04:44:21;-1.90;99.90
31309;DHT22;17936;52.446;10.840;2023-02-28T04:46:48;-2.00;99.90
31309;DHT22;17936;52.446;10.840;2023-02-28T04:49:14;-2.20;99.90
31309;DHT22;17936;52.446;10.840;2023-02-28T04:51:40;-2.20;99.90
31309;DHT22;17936;52.446;10.840;2023-02-28T04:54:06;-2.20;99.90
31309;DHT22;17936;52.446;10.840;2023-02-28T04:56:31;-2.10;99.90
31309;DHT22;17936;52.446;10.840;2023-02-28T04:58:57;-2.20;99.90
31309;DHT22;17936;52.446;10.840;2023-02-28T05:01:31;-2.10;99.90
31309;DHT22;17936;52.446;10.840;2023-02-28T05:03:59;-2.10;99.90
31309;DHT22;17936;52.446;10.840;2023-02-28T05:06:27;-2.10;99.90
31309;DHT22;17936;52.446;10.840;2023-02-28T05:08:53;-2.20;98.70
31309;DHT22;17936;52.446;10.840;2023-02-28T05:11:27;-2.20;99.90
31309;DHT22;17936;52.446;10.840;2023-02-28T05:13:54;-2.30;99.70
31309;DHT22;17936;52.446;10.840;2023-02-28T05:16:20;-2.50;99.90
31309;DHT22;17936;52.446;10.840;2023-02-28T05:18:46;-2.40;99.90
31309;DHT22;17936;52.446;10.840;2023-02-28T05:21:30;-2.30;99.90
31309;DHT22;17936;52.446;10.840;2023-02-28T05:24:00;-2.60;97.90
31309;DHT22;17936;52.446;10.840;2023-02-28T05:26:27;-2.80;99.90
31309;DHT22;17936;52.446;10.840;2023-02-28T05:28:53;-2.70;99.90
31309;DHT22;17936;52.446;10.840;2023-02-28T05:31:18;-2.60;99.90
31309;DHT22;17936;52.446;10.840;2023-02-28T05:33:44;-2.60;99.90
31309;DHT22;17936;52.446;10.840;2023-02-28T05:36:10;-2.50;99.90
31309;DHT22;17936;52.446;10.840;2023-02-28T05:38:35;-2.50;99.90
31309;DHT22;17936;52.446;10.840;2023-02-28T05:41:08;-2.50;99.90
31309;DHT22;17936;52.446;10.840;2023-02-28T05:43:34;-2.50;99.90
31309;DHT22;17936;52.446;10.840;2023-02-28T05:46:08;-2.50;99.60
31309;DHT22;17936;52.446;10.840;2023-02-28T05:48:36;-2.50;97.40
31309;DHT22;17936;52.446;10.840;2023-02-28T05:51:02;-2.50;93.60
31309;DHT22;17936;52.446;10.840;2023-02-28T05:53:29;-2.60;94.80
31309;DHT22;17936;52.446;10.840;2023-02-28T05:55:54;-2.60;92.80
31309;DHT22;17936;52.446;10.840;2023-02-28T05:58:20;-2.70;88.80
31309;DHT22;17936;52.446;10.840;2023-02-28T06:00:45;-2.60;92.60
31309;DHT22;17936;52.446;10.840;2023-02-28T06:03:11;-2.70;91.50
31309;DHT22;17936;52.446;10.840;2023-02-28T06:05:36;-2.70;91.00
31309;DHT22;17936;52.446;10.840;2023-02-28T06:08:04;-2.70;90.30
31309;DHT22;17936;52.446;10.840;2023-02-28T06:10:32;-2.80;87.90
31309;DHT22;17936;52.446;10.840;2023-02-28T06:13:00;-2.80;87.30
31309;DHT22;17936;52.446;10.840;2023-02-28T06:15:27;-2.90;88.30
31309;DHT22;17936;52.446;10.840;2023-02-28T06:17:53;-2.80;94.70
31309;DHT22;17936;52.446;10.840;2023-02-28T06:20:18;-2.70;93.00
31309;DHT22;17936;52.446;10.840;2023-02-28T06:22:44;-2.60;91.20
31309;DHT22;17936;52.446;10.840;2023-02-28T06:25:10;-2.80;93.40
31309;DHT22;17936;52.446;10.840;2023-02-28T06:27:36;-2.70;97.10
31309;DHT22;17936;52.446;10.840;2023-02-28T06:30:02;-2.80;94.70
31309;DHT22;17936;52.446;10.840;2023-02-28T06:32:27;-2.70;95.20
31309;DHT22;17936;52.446;10.840;2023-02-28T06:34:53;-3.20;91.30
31309;DHT22;17936;52.446;10.840;2023-02-28T06:37:18;-2.70;99.90
31309;DHT22;17936;52.446;10.840;2023-02-28T06:39:44;-2.70;99.40
31309;DHT22;17936;52.446;10.840;2023-02-28T06:42:10;-2.50;99.90
31309;DHT22;17936;52.446;10.840;2023-02-28T06:44:35;-2.30;99.90
31309;DHT22;17936;52.446;10.840;2023-02-28T06:47:03;-2.10;99.90
31309;DHT22;17936;52.446;10.840;2023-02-28T06:49:33;-1.00;99.80
31309;DHT22;17936;52.446;10.840;2023-02-28T06:51:59;-1.90;97.40
31309;DHT22;17936;52.446;10.840;2023-02-28T06:54:25;-1.60;99.90
31309;DHT22;17936;52.446;10.840;2023-02-28T06:56:50;-1.50;99.90
31309;DHT22;17936;52.446;10.840;2023-02-28T06:59:16;-1.00;99.90
31309;DHT22;17936;52.446;10.840;2023-02-28T07:01:42;-1.20;97.70
31309;DHT22;17936;52.446;10.840;2023-02-28T07:04:08;-0.90;97.70
31309;DHT22;17936;52.446;10.840;2023-02-28T07:06:33;-0.60;93.30
31309;DHT22;17936;52.446;10.840;2023-02-28T07:08:59;-0.50;89.70
31309;DHT22;17936;52.446;10.840;2023-02-28T07:11:26;-0.40;77.30
31309;DHT22;17936;52.446;10.840;2023-02-28T07:13:55;-0.30;62.20
31309;DHT22;17936;52.446;10.840;2023-02-28T07:16:24;-0.10;56.50
31309;DHT22;17936;52.446;10.840;2023-02-28T07:18:52;0.20;99.90
31309;DHT22;17936;52.446;10.840;2023-02-28T07:21:18;0.60;99.90
31309;DHT22;17936;52.446;10.840;2023-02-28T07:23:43;0.30;99.90
31309;DHT22;17936;52.446;10.840;2023-02-28T07:26:13;0.90;99.90
31309;DHT22;17936;52.446;10.840;2023-02-28T07:28:40;1.20;99.90
31309;DHT22;17936;52.446;10.840;2023-02-28T07:31:08;1.50;99.90
31309;DHT22;17936;52.446;10.840;2023-02-28T07:33:33;1.30;99.90
31309;DHT22;17936;52.446;10.840;2023-02-28T07:36:08;1.30;99.90
31309;DHT22;17936;52.446;10.840;2023-02-28T07:38:35;1.30;99.90
31309;DHT22;17936;52.446;10.840;2023-02-28T07:41:01;1.30;99.90
31309;DHT22;17936;52.446;10.840;2023-02-28T07:43:30;1.50;99.90
31309;DHT22;17936;52.446;10.840;2023-02-28T07:45:55;2.10;99.90
31309;DHT22;17936;52.446;10.840;2023-02-28T07:48:21;1.60;99.90
31309;DHT22;17936;52.446;10.840;2023-02-28T07:50:54;1.60;99.90
31309;DHT22;17936;52.446;10.840;2023-02-28T07:53:20;1.40;99.90
31309;DHT22;17936;52.446;10.840;2023-02-28T07:55:46;1.90;99.90
31309;DHT22;17936;52.446;10.840;2023-02-28T07:58:11;2.10;99.90
31309;DHT22;17936;52.446;10.840;2023-02-28T08:00:37;2.00;99.90
31309;DHT22;17936;52.446;10.840;2023-02-28T08:03:03;1.80;99.90
31309;DHT22;17936;52.446;10.840;2023-02-28T08:05:29;1.90;99.90
31309;DHT22;17936;52.446;10.840;2023-02-28T08:07:55;2.00;99.90
31309;DHT22;17936;52.446;10.840;2023-02-28T08:10:21;2.00;99.90
31309;DHT22;17936;52.446;10.840;2023-02-28T08:12:46;2.20;99.90
31309;DHT22;17936;52.446;10.840;2023-02-28T08:15:12;2.00;99.90
31309;DHT22;17936;52.446;10.840;2023-02-28T08:17:37;2.20;99.90
31309;DHT22;17936;52.446;10.840;2023-02-28T08:20:03;2.30;99.90
31309;DHT22;17936;52.446;10.840;2023-02-28T08:22:29;2.50;99.90
31309;DHT22;17936;52.446;10.840;2023-02-28T08:24:55;2.30;99.90
31309;DHT22;17936;52.446;10.840;2023-02-28T08:27:20;2.20;99.90
31309;DHT22;17936;52.446;10.840;2023-02-28T08:29:46;2.80;99.90
31309;DHT22;17936;52.446;10.840;2023-02-28T08:32:12;2.80;99.90
31309;DHT22;17936;52.446;10.840;2023-02-28T08:34:39;2.70;99.90
31309;DHT22;17936;52.446;10.840;2023-02-28T08:37:05;3.00;99.90
31309;DHT22;17936;52.446;10.840;2023-02-28T08:39:34;3.30;99.90
31309;DHT22;17936;52.446;10.840;2023-02-28T08:42:00;3.30;99.90
31309;DHT22;17936;52.446;10.840;2023-02-28T08:44:25;3.00;99.90
31309;DHT22;17936;52.446;10.840;2023-02-28T08:46:52;3.30;99.90
31309;DHT22;17936;52.446;10.840;2023-02-28T08:49:18;3.50;99.90
31309;DHT22;17936;52.446;10.840;2023-02-28T08:51:44;3.20;99.90
31309;DHT22;17936;52.446;10.840;2023-02-28T08:54:09;3.10;99.90
31309;DHT22;17936;52.446;10.840;2023-02-28T08:56:38;3.30;99.90
31309;DHT22;17936;52.446;10.840;2023-02-28T08:59:04;3.40;99.90
31309;DHT22;17936;52.446;10.840;2023-02-28T09:01:30;3.30;99.90
31309;DHT22;17936;52.446;10.840;2023-02-28T09:03:56;3.40;99.90
31309;DHT22;17936;52.446;10.840;2023-02-28T09:06:24;3.50;99.90
31309;DHT22;17936;52.446;10.840;2023-02-28T09:08:51;3.50;99.90
31309;DHT22;17936;52.446;10.840;2023-02-28T09:11:16;3.60;99.90
31309;DHT22;17936;52.446;10.840;2023-02-28T09:13:43;3.70;99.90
31309;DHT22;17936;52.446;10.840;2023-02-28T09:16:12;3.60;99.90
31309;DHT22;17936;52.446;10.840;2023-02-28T09:18:38;3.90;99.90
31309;DHT22;17936;52.446;10.840;2023-02-28T09:21:08;4.00;99.90
31309;DHT22;17936;52.446;10.840;2023-02-28T09:23:34;3.90;99.90
31309;DHT22;17936;52.446;10.840;2023-02-28T09:26:00;4.20;99.90
31309;DHT22;17936;52.446;10.840;2023-02-28T09:28:26;4.60;99.90
31309;DHT22;17936;52.446;10.840;2023-02-28T09:30:53;4.30;99.90
31309;DHT22;17936;52.446;10.840;2023-02-28T09:33:20;4.10;99.90
31309;DHT22;17936;52.446;10.840;2023-02-28T09:35:47;4.10;99.90
31309;DHT22;17936;52.446;10.840;2023-02-28T09:38:13;4.40;99.90
31309;DHT22;17936;52.446;10.840;2023-02-28T09:40:51;4.60;99.90
31309;DHT22;17936;52.446;10.840;2023-02-28T09:43:20;4.40;99.90
31309;DHT22;17936;52.446;10.840;2023-02-28T09:45:54;4.90;99.90
31309;DHT22;17936;52.446;10.840;2023-02-28T09:48:32;4.80;99.90
31309;DHT22;17936;52.446;10.840;2023-02-28T09:51:09;4.50;99.90
31309;DHT22;17936;52.446;10.840;2023-02-28T09:53:38;4.80;99.90
31309;DHT22;17936;52.446;10.840;2023-02-28T09:56:09;4.90;99.90
31309;DHT22;17936;52.446;10.840;2023-02-28T09:58:51;5.10;99.90
31309;DHT22;17936;52.446;10.840;2023-02-28T10:01:24;4.60;99.90
31309;DHT22;17936;52.446;10.840;2023-02-28T10:03:56;4.80;99.90
31309;DHT22;17936;52.446;10.840;2023-02-28T10:06:27;5.20;99.90
31309;DHT22;17936;52.446;10.840;2023-02-28T10:09:07;5.30;99.90
31309;DHT22;17936;52.446;10.840;2023-02-28T10:11:36;5.30;99.90
31309;DHT22;17936;52.446;10.840;2023-02-28T10:14:12;5.40;99.90
31309;DHT22;17936;52.446;10.840;2023-02-28T10:16:48;5.30;99.90
31309;DHT22;17936;52.446;10.840;2023-02-28T10:21:58;5.40;99.90
31309;DHT22;17936;52.446;10.840;2023-02-28T10:24:40;5.20;99.90
31309;DHT22;17936;52.446;10.840;2023-02-28T10:27:22;5.50;99.90
31309;DHT22;17936;52.446;10.840;2023-02-28T10:29:50;5.30;99.90
31309;DHT22;17936;52.446;10.840;2023-02-28T10:32:22;5.30;99.90
31309;DHT22;17936;52.446;10.840;2023-02-28T10:37:37;5.50;99.90
31309;DHT22;17936;52.446;10.840;2023-02-28T10:40:05;5.60;99.90
31309;DHT22;17936;52.446;10.840;2023-02-28T10:42:31;5.50;99.90
31309;DHT22;17936;52.446;10.840;2023-02-28T10:47:34;5.80;99.90
31309;DHT22;17936;52.446;10.840;2023-02-28T10:49:59;6.10;99.90
31309;DHT22;17936;52.446;10.840;2023-02-28T10:52:38;5.70;99.90
31309;DHT22;17936;52.446;10.840;2023-02-28T10:55:22;5.70;99.90
31309;DHT22;17936;52.446;10.840;2023-02-28T10:57:49;5.30;99.90
31309;DHT22;17936;52.446;10.840;2023-02-28T11:02:42;5.30;99.90
31309;DHT22;17936;52.446;10.840;2023-02-28T11:05:35;5.10;99.90
31309;DHT22;17936;52.446;10.840;2023-02-28T11:08:14;5.20;99.90
31309;DHT22;17936;52.446;10.840;2023-02-28T11:10:45;5.10;99.90
31309;DHT22;17936;52.446;10.840;2023-02-28T11:13:20;5.80;99.90
31309;DHT22;17936;52.446;10.840;2023-02-28T11:15:53;5.80;99.50
31309;DHT22;17936;52.446;10.840;2023-02-28T11:18:27;6.00;96.40
31309;DHT22;17936;52.446;10.840;2023-02-28T11:20:56;5.00;96.70
31309;DHT22;17936;52.446;10.840;2023-02-28T11:23:25;5.10;98.50
31309;DHT22;17936;52.446;10.840;2023-02-28T11:25:55;5.70;99.90
31309;DHT22;17936;52.446;10.840;2023-02-28T11:28:32;5.80;99.10
31309;DHT22;17936;52.446;10.840;2023-02-28T11:31:03;6.30;98.10
31309;DHT22;17936;52.446;10.840;2023-02-28T11:33:49;6.10;96.80
31309;DHT22;17936;52.446;10.840;2023-02-28T11:36:31;5.60;96.40
31309;DHT22;17936;52.446;10.840;2023-02-28T11:39:00;5.60;97.20
31309;DHT22;17936;52.446;10.840;2023-02-28T11:47:26;6.30;96.90
31309;DHT22;17936;52.446;10.840;2023-02-28T11:49:33;6.30;96.40
31309;DHT22;17936;52.446;10.840;2023-02-28T11:52:21;5.60;95.80
31309;DHT22;17936;52.446;10.840;2023-02-28T12:01:01;5.40;96.70
31309;DHT22;17936;52.446;10.840;2023-02-28T12:03:39;5.00;97.70
31309;DHT22;17936;52.446;10.840;2023-02-28T12:06:28;5.70;98.70
31309;DHT22;17936;52.446;10.840;2023-02-28T12:09:23;6.50;99.90
31309;DHT22;17936;52.446;10.840;2023-02-28T12:11:58;5.40;97.00
31309;DHT22;17936;52.446;10.840;2023-02-28T12:15:03;5.10;97.80
31309;DHT22;17936;52.446;10.840;2023-02-28T12:20:36;5.10;99.30
31309;DHT22;17936;52.446;10.840;2023-02-28T12:26:16;5.60;98.00
31309;DHT22;17936;52.446;10.840;2023-02-28T12:28:54;4.90;96.90
31309;DHT22;17936;52.446;10.840;2023-02-28T12:31:34;4.70;98.10
31309;DHT22;17936;52.446;10.840;2023-02-28T12:34:04;4.70;97.00
31309;DHT22;17936;52.446;10.840;2023-02-28T12:36:30;5.20;97.10
31309;DHT22;17936;52.446;10.840;2023-02-28T12:39:03;5.50;96.20
31309;DHT22;17936;52.446;10.840;2023-02-28T12:41:41;5.80;94.90
31309;DHT22;17936;52.446;10.840;2023-02-28T12:44:19;5.90;95.90
31309;DHT22;17936;52.446;10.840;2023-02-28T12:46:55;5.70;94.70
31309;DHT22;17936;52.446;10.840;2023-02-28T12:52:14;6.00;95.80
31309;DHT22;17936;52.446;10.840;2023-02-28T12:54:51;6.10;97.00
31309;DHT22;17936;52.446;10.840;2023-02-28T12:57:43;6.20;95.30
31309;DHT22;17936;52.446;10.840;2023-02-28T13:00:16;6.30;96.90
31309;DHT22;17936;52.446;10.840;2023-02-28T13:05:37;5.70;98.60
31309;DHT22;17936;52.446;10.840;2023-02-28T13:10:47;6.40;97.50
31309;DHT22;17936;52.446;10.840;2023-02-28T13:13:29;6.00;96.50
31309;DHT22;17936;52.446;10.840;2023-02-28T13:18:38;6.10;95.70
31309;DHT22;17936;52.446;10.840;2023-02-28T13:21:07;6.30;96.60
31309;DHT22;17936;52.446;10.840;2023-02-28T13:23:56;6.60;96.50
31309;DHT22;17936;52.446;10.840;2023-02-28T13:28:59;6.50;95.10
31309;DHT22;17936;52.446;10.840;2023-02-28T13:31:26;6.10;96.10
31309;DHT22;17936;52.446;10.840;2023-02-28T13:36:26;6.00;95.50
31309;DHT22;17936;52.446;10.840;2023-02-28T13:38:54;6.10;96.00
31309;DHT22;17936;52.446;10.840;2023-02-28T13:44:09;6.30;95.50
31309;DHT22;17936;52.446;10.840;2023-02-28T13:54:59;6.30;95.00
31309;DHT22;17936;52.446;10.840;2023-02-28T13:57:49;6.10;94.30
31309;DHT22;17936;52.446;10.840;2023-02-28T14:00:21;6.60;92.80
31309;DHT22;17936;52.446;10.840;2023-02-28T14:03:19;6.70;92.60
31309;DHT22;17936;52.446;10.840;2023-02-28T14:06:15;6.50;92.30
31309;DHT22;17936;52.446;10.840;2023-02-28T14:09:03;6.40;93.40
31309;DHT22;17936;52.446;10.840;2023-02-28T14:11:35;6.10;93.90
31309;DHT22;17936;52.446;10.840;2023-02-28T14:14:03;6.90;93.70
31309;DHT22;17936;52.446;10.840;2023-02-28T14:16:46;7.00;92.50
31309;DHT22;17936;52.446;10.840;2023-02-28T14:19:15;6.50;91.70
31309;DHT22;17936;52.446;10.840;2023-02-28T14:30:43;6.70;92.40
31309;DHT22;17936;52.446;10.840;2023-02-28T14:36:14;6.10;92.40
31309;DHT22;17936;52.446;10.840;2023-02-28T14:38:42;6.20;92.30
31309;DHT22;17936;52.446;10.840;2023-02-28T14:41:17;6.40;92.20
31309;DHT22;17936;52.446;10.840;2023-02-28T14:43:53;6.30;91.60
31309;DHT22;17936;52.446;10.840;2023-02-28T14:46:20;6.50;91.30
31309;DHT22;17936;52.446;10.840;2023-02-28T14:48:47;6.30;91.60
31309;DHT22;17936;52.446;10.840;2023-02-28T14:51:18;5.90;91.40
31309;DHT22;17936;52.446;10.840;2023-02-28T14:53:49;6.20;94.30
31309;DHT22;17936;52.446;10.840;2023-02-28T14:56:36;6.50;91.50
31309;DHT22;17936;52.446;10.840;2023-02-28T14:59:03;6.20;91.00
31309;DHT22;17936;52.446;10.840;2023-02-28T15:01:28;5.90;91.00
31309;DHT22;17936;52.446;10.840;2023-02-28T15:04:25;5.80;91.20
31309;DHT22;17936;52.446;10.840;2023-02-28T15:07:11;6.20;90.90
31309;DHT22;17936;52.446;10.840;2023-02-28T15:09:38;6.00;91.50
31309;DHT22;17936;52.446;10.840;2023-02-28T15:12:03;6.10;91.80
31309;DHT22;17936;52.446;10.840;2023-02-28T15:14:29;6.30;91.40
31309;DHT22;17936;52.446;10.840;2023-02-28T15:16:59;5.90;90.90
31309;DHT22;17936;52.446;10.840;2023-02-28T15:19:32;5.90;91.30
31309;DHT22;17936;52.446;10.840;2023-02-28T15:22:05;5.90;92.60
31309;DHT22;17936;52.446;10.840;2023-02-28T15:24:41;6.00;91.80
31309;DHT22;17936;52.446;10.840;2023-02-28T15:27:13;5.80;91.30
31309;DHT22;17936;52.446;10.840;2023-02-28T15:29:46;5.90;91.50
31309;DHT22;17936;52.446;10.840;2023-02-28T15:32:37;5.70;91.40
31309;DHT22;17936;52.446;10.840;2023-02-28T15:37:58;5.60;92.10
31309;DHT22;17936;52.446;10.840;2023-02-28T15:40:40;5.60;91.10
31309;DHT22;17936;52.446;10.840;2023-02-28T15:43:16;5.60;92.40
31309;DHT22;17936;52.446;10.840;2023-02-28T15:45:50;5.60;94.20
31309;DHT22;17936;52.446;10.840;2023-02-28T15:48:19;5.30;93.50
31309;DHT22;17936;52.446;10.840;2023-02-28T15:50:52;5.30;92.60
31309;DHT22;17936;52.446;10.840;2023-02-28T15:53:28;5.40;91.20
31309;DHT22;17936;52.446;10.840;2023-02-28T15:56:04;5.50;92.00
31309;DHT22;17936;52.446;10.840;2023-02-28T15:58:30;5.10;92.20
31309;DHT22;17936;52.446;10.840;2023-02-28T16:01:35;5.30;92.30
31309;DHT22;17936;52.446;10.840;2023-02-28T16:03:57;5.30;92.60
31309;DHT22;17936;52.446;10.840;2023-02-28T16:06:36;5.50;93.50
31309;DHT22;17936;52.446;10.840;2023-02-28T16:09:05;5.30;92.50
31309;DHT22;17936;52.446;10.840;2023-02-28T16:11:34;5.10;93.00
31309;DHT22;17936;52.446;10.840;2023-02-28T16:14:00;5.40;95.60
31309;DHT22;17936;52.446;10.840;2023-02-28T16:16:26;5.00;94.10
31309;DHT22;17936;52.446;10.840;2023-02-28T16:18:52;4.80;94.00
31309;DHT22;17936;52.446;10.840;2023-02-28T16:21:18;4.80;94.70
31309;DHT22;17936;52.446;10.840;2023-02-28T16:23:43;4.60;95.00
31309;DHT22;17936;52.446;10.840;2023-02-28T16:26:18;4.60;95.50
31309;DHT22;17936;52.446;10.840;2023-02-28T16:28:44;4.80;95.40
31309;DHT22;17936;52.446;10.840;2023-02-28T16:31:11;4.90;96.10
31309;DHT22;17936;52.446;10.840;2023-02-28T16:33:42;5.00;96.30
31309;DHT22;17936;52.446;10.840;2023-02-28T16:36:20;4.80;95.20
31309;DHT22;17936;52.446;10.840;2023-02-28T16:38:46;4.80;95.80
31309;DHT22;17936;52.446;10.840;2023-02-28T16:41:18;4.70;97.00
31309;DHT22;17936;52.446;10.840;2023-02-28T16:43:47;4.80;95.70
31309;DHT22;17936;52.446;10.840;2023-02-28T16:46:14;4.30;95.50
31309;DHT22;17936;52.446;10.840;2023-02-28T16:48:40;4.40;96.90
31309;DHT22;17936;52.446;10.840;2023-02-28T16:51:10;4.50;97.60
31309;DHT22;17936;52.446;10.840;2023-02-28T16:53:36;4.40;97.30
31309;DHT22;17936;52.446;10.840;2023-02-28T16:56:01;4.50;96.20
31309;DHT22;17936;52.446;10.840;2023-02-28T16:58:27;4.60;97.60
31309;DHT22;17936;52.446;10.840;2023-02-28T17:00:53;4.50;96.50
31309;DHT22;17936;52.446;10.840;2023-02-28T17:03:26;4.40;97.60
31309;DHT22;17936;52.446;10.840;2023-02-28T17:05:53;4.20;97.30
31309;DHT22;17936;52.446;10.840;2023-02-28T17:08:18;4.20;98.10
31309;DHT22;17936;52.446;10.840;2023-02-28T17:10:44;3.90;98.80
31309;DHT22;17936;52.446;10.840;2023-02-28T17:13:09;4.00;99.90
31309;DHT22;17936;52.446;10.840;2023-02-28T17:15:36;3.80;99.90
31309;DHT22;17936;52.446;10.840;2023-02-28T17:18:02;3.90;99.60
31309;DHT22;17936;52.446;10.840;2023-02-28T17:20:27;3.90;99.90